Millbach, Pennsylvania
Current Conditions -  °F | °C
As of 8:53 AM on Tuesday 27 Jan 2015 (Local Time) from KLNS Reporting Station
Haze Haze  
Wind Chill: 12°   Ceiling: 4200
Heat Index: 24°   Visibility: 4mi
Dew Point: 18°   Wind: 14mph
Humidity: 77%   Direction: 350°N
Pressure: 29.78"   Gusts: NA
Location:  40.3035°N, 76.254°W
Report Text: KLNS 271353Z 35012KT 4SM HZ BKN042 OVC050 M04/M08 A2978 RMK AO2 SNE23 SLP088 P0000 T10441078
Loading
Personal Weather Stations






























Interactive Weather Map New forecast layout! Learn more

10-Day Weather Forecast

Advertisements
Track Severe Weather on mobile